createdAt,value
2017-11-17T00:00:38.229Z,100.97
2017-11-17T00:03:07.728Z,93.13
2017-11-17T00:05:35.976Z,89.27
2017-11-17T00:08:04.952Z,94.17
2017-11-17T00:10:33.222Z,94.90
2017-11-17T00:13:02.273Z,91.90
2017-11-17T00:15:30.518Z,80.23
2017-11-17T00:17:58.790Z,77.00
2017-11-17T00:20:27.067Z,75.83
2017-11-17T00:22:55.313Z,71.80
2017-11-17T00:25:24.349Z,65.33
2017-11-17T00:27:52.618Z,82.67
2017-11-17T00:30:20.856Z,69.83
2017-11-17T00:32:49.887Z,89.70
2017-11-17T00:35:18.958Z,66.77
2017-11-17T00:37:47.984Z,82.73
2017-11-17T00:40:16.218Z,78.10
2017-11-17T00:42:45.305Z,75.73
2017-11-17T00:45:13.578Z,91.77
2017-11-17T00:47:42.756Z,87.13
2017-11-17T00:50:10.996Z,91.00
2017-11-17T00:52:39.256Z,86.03
2017-11-17T00:55:08.018Z,89.17
2017-11-17T00:57:36.286Z,90.23
2017-11-17T01:00:04.993Z,97.00
2017-11-17T01:02:34.029Z,90.17
2017-11-17T01:05:03.325Z,90.17
2017-11-17T01:07:31.577Z,93.97
2017-11-17T01:10:00.612Z,97.67
2017-11-17T01:12:28.887Z,103.03
2017-11-17T01:14:57.156Z,99.50
2017-11-17T01:17:25.506Z,104.73
2017-11-17T01:19:54.505Z,116.90
2017-11-17T01:22:23.873Z,120.50
2017-11-17T01:24:52.145Z,98.37
2017-11-17T01:27:20.388Z,104.67
2017-11-17T01:29:48.692Z,98.17
2017-11-17T01:32:16.952Z,106.37
2017-11-17T01:34:45.246Z,105.17
2017-11-17T01:37:13.555Z,114.43
2017-11-17T01:39:41.802Z,89.07
2017-11-17T01:42:10.819Z,93.47
2017-11-17T01:44:39.104Z,106.90
2017-11-17T01:47:08.117Z,109.90
2017-11-17T01:49:36.425Z,108.07
2017-11-17T01:52:04.702Z,116.37
2017-11-17T01:54:32.976Z,121.37
2017-11-17T01:57:01.244Z,134.33
2017-11-17T01:59:29.531Z,127.83
2017-11-17T02:01:57.836Z,127.13
2017-11-17T02:04:26.118Z,110.30
2017-11-17T02:06:54.614Z,118.93
2017-11-17T02:09:22.856Z,123.13
2017-11-17T02:11:51.115Z,120.10
2017-11-17T02:14:19.377Z,108.20
2017-11-17T02:16:47.623Z,105.43
2017-11-17T02:19:15.872Z,115.43
2017-11-17T02:21:44.137Z,100.57
2017-11-17T02:24:13.226Z,121.83
2017-11-17T02:26:41.498Z,106.23
2017-11-17T02:29:09.787Z,109.27
2017-11-17T02:31:38.064Z,113.23
2017-11-17T02:34:06.487Z,114.00
2017-11-17T02:36:34.731Z,99.10
2017-11-17T02:39:02.991Z,108.70
2017-11-17T02:41:31.277Z,130.50
2017-11-17T02:43:59.530Z,111.63
2017-11-17T02:46:27.794Z,114.03
2017-11-17T02:48:56.866Z,98.23
2017-11-17T02:51:25.113Z,118.60
2017-11-17T02:53:53.422Z,106.40
2017-11-17T02:56:23.207Z,113.57
2017-11-17T02:58:52.741Z,129.87
2017-11-17T03:01:21.754Z,113.67
2017-11-17T03:03:50.039Z,108.37
2017-11-17T03:06:18.306Z,117.53
2017-11-17T03:08:46.617Z,106.67
2017-11-17T03:11:14.914Z,93.03
2017-11-17T03:13:43.160Z,95.37
2017-11-17T03:16:11.464Z,89.30
2017-11-17T03:18:40.703Z,103.03
2017-11-17T03:21:09.606Z,127.83
2017-11-17T03:23:37.841Z,133.97
2017-11-17T03:26:06.091Z,118.27
2017-11-17T03:28:34.395Z,116.10
2017-11-17T03:31:02.689Z,120.33
2017-11-17T03:33:30.947Z,122.50
2017-11-17T03:36:00.198Z,135.17
2017-11-17T03:38:28.499Z,111.37
2017-11-17T03:40:56.775Z,119.50
2017-11-17T03:43:25.048Z,139.97
2017-11-17T03:45:53.290Z,129.77
2017-11-17T03:48:21.575Z,126.60
2017-11-17T03:50:50.599Z,129.73
2017-11-17T03:53:18.879Z,146.07
2017-11-17T03:55:47.174Z,143.57
2017-11-17T03:58:15.455Z,138.03
2017-11-17T04:00:43.692Z,116.90
2017-11-17T04:03:11.995Z,125.10
2017-11-17T04:05:40.284Z,109.77
2017-11-17T04:08:08.552Z,107.77
2017-11-17T04:10:36.777Z,96.20
2017-11-17T04:13:05.862Z,94.73
2017-11-17T04:15:34.083Z,100.80
2017-11-17T04:18:02.355Z,91.80
2017-11-17T04:20:31.380Z,90.93
2017-11-17T04:22:59.682Z,88.23
2017-11-17T04:25:27.900Z,90.43
2017-11-17T04:27:56.904Z,85.43
2017-11-17T04:30:25.179Z,83.80
2017-11-17T04:32:53.443Z,71.20
2017-11-17T04:35:21.747Z,69.80
2017-11-17T04:37:51.558Z,63.90
2017-11-17T04:40:19.909Z,66.00
2017-11-17T04:42:48.136Z,56.63
2017-11-17T04:45:16.398Z,70.67
2017-11-17T04:47:44.661Z,69.90
2017-11-17T04:50:12.903Z,68.30
2017-11-17T04:52:42.002Z,85.13
2017-11-17T04:55:11.110Z,83.00
2017-11-17T04:57:39.425Z,80.80
2017-11-17T05:00:08.549Z,82.10
2017-11-17T05:02:36.849Z,71.30
2017-11-17T05:05:05.076Z,89.10
2017-11-17T05:07:33.406Z,87.50
2017-11-17T05:10:01.674Z,70.10
2017-11-17T05:12:29.919Z,82.67
2017-11-17T05:14:58.251Z,83.10
2017-11-17T05:17:26.488Z,92.73
2017-11-17T05:19:54.751Z,73.73
2017-11-17T05:22:22.998Z,62.67
2017-11-17T05:24:52.628Z,78.57
2017-11-17T05:27:20.928Z,86.53
2017-11-17T05:29:50.134Z,70.33
2017-11-17T05:32:18.368Z,75.43
2017-11-17T05:34:48.331Z,79.50
2017-11-17T05:37:16.562Z,66.67
2017-11-17T05:39:45.633Z,66.77
2017-11-17T05:42:13.862Z,55.63
2017-11-17T05:44:42.124Z,65.93
2017-11-17T05:47:10.359Z,56.27
2017-11-17T05:49:38.640Z,70.97
2017-11-17T05:52:06.878Z,76.83
2017-11-17T05:54:35.128Z,72.40
2017-11-17T05:57:03.397Z,78.13
2017-11-17T05:59:32.359Z,66.60
2017-11-17T06:02:00.609Z,57.03
2017-11-17T06:04:28.896Z,55.23
2017-11-17T06:06:57.927Z,68.27
2017-11-17T06:09:27.523Z,58.93
2017-11-17T06:11:55.807Z,54.50
2017-11-17T06:14:25.099Z,63.63
2017-11-17T06:16:54.331Z,52.80
2017-11-17T06:19:23.328Z,69.00
2017-11-17T06:21:51.597Z,65.60
2017-11-17T06:24:20.616Z,116.53
2017-11-17T06:26:49.668Z,64.93
2017-11-17T06:29:17.912Z,71.40
2017-11-17T06:31:47.667Z,52.37
2017-11-17T06:34:16.467Z,65.43
2017-11-17T06:36:45.479Z,58.53
2017-11-17T06:39:14.844Z,67.10
2017-11-17T06:41:43.218Z,62.73
2017-11-17T06:44:11.476Z,55.03
2017-11-17T06:46:39.773Z,57.00
2017-11-17T06:49:08.025Z,61.57
2017-11-17T06:51:36.301Z,63.37
2017-11-17T06:54:04.585Z,62.30
2017-11-17T06:56:32.817Z,55.43
2017-11-17T06:59:01.111Z,52.87
2017-11-17T07:01:29.375Z,63.37
2017-11-17T07:03:57.630Z,67.47
2017-11-17T07:06:26.676Z,61.17
2017-11-17T07:08:54.943Z,60.23
2017-11-17T07:11:23.224Z,55.17
2017-11-17T07:13:51.742Z,48.50
2017-11-17T07:16:19.977Z,61.87
2017-11-17T07:18:48.231Z,56.67
2017-11-17T07:21:16.559Z,63.53
2017-11-17T07:23:44.795Z,68.37
2017-11-17T07:26:14.027Z,63.37
2017-11-17T07:28:42.287Z,63.00
2017-11-17T07:31:10.582Z,67.73
2017-11-17T07:33:38.852Z,63.87
2017-11-17T07:36:07.141Z,58.83
2017-11-17T07:38:35.362Z,62.23
2017-11-17T07:41:04.382Z,48.70
2017-11-17T07:43:32.612Z,65.77
2017-11-17T07:46:01.627Z,67.80
2017-11-17T07:48:30.701Z,53.73
2017-11-17T07:50:58.965Z,52.60
2017-11-17T07:53:27.246Z,59.83
2017-11-17T07:55:55.530Z,48.17
2017-11-17T07:58:23.785Z,42.10
2017-11-17T08:00:52.046Z,49.57
2017-11-17T08:03:20.288Z,55.87
2017-11-17T08:05:48.601Z,45.37
2017-11-17T08:08:18.187Z,46.70
2017-11-17T08:10:46.486Z,51.77
2017-11-17T08:13:14.770Z,62.37
2017-11-17T08:15:43.212Z,64.97
2017-11-17T08:18:24.129Z,56.00
2017-11-17T08:20:52.376Z,67.07
2017-11-17T08:23:20.648Z,50.43
2017-11-17T08:25:49.681Z,56.10
2017-11-17T08:28:18.400Z,55.23
2017-11-17T08:30:47.009Z,51.77
2017-11-17T08:33:15.272Z,47.73
2017-11-17T08:35:43.541Z,58.63
2017-11-17T08:38:11.800Z,75.37
2017-11-17T08:40:40.047Z,53.63
2017-11-17T08:43:08.288Z,39.40
2017-11-17T08:45:38.707Z,60.57
2017-11-17T08:48:08.407Z,53.67
2017-11-17T08:50:37.433Z,41.20
2017-11-17T08:53:05.711Z,43.10
2017-11-17T08:55:34.825Z,50.33
2017-11-17T08:58:03.129Z,53.53
2017-11-17T09:00:31.406Z,52.37
2017-11-17T09:03:00.623Z,47.97
2017-11-17T09:05:28.897Z,46.67
2017-11-17T09:07:57.184Z,47.07
2017-11-17T09:10:25.450Z,62.83
2017-11-17T09:12:53.696Z,51.70
2017-11-17T09:15:21.948Z,53.43
2017-11-17T09:17:50.976Z,43.43
2017-11-17T09:20:19.236Z,52.80
2017-11-17T09:22:47.484Z,46.13
2017-11-17T09:25:16.489Z,42.87
2017-11-17T09:27:44.738Z,46.20
2017-11-17T09:30:13.006Z,36.73
2017-11-17T09:32:41.258Z,44.37
2017-11-17T09:35:09.543Z,50.67
2017-11-17T09:37:37.763Z,36.80
2017-11-17T09:40:06.806Z,31.13
2017-11-17T09:42:35.031Z,38.43
2017-11-17T09:45:04.471Z,35.40
2017-11-17T09:47:33.655Z,30.33
2017-11-17T09:50:01.930Z,45.57
2017-11-17T09:52:30.947Z,29.20
2017-11-17T09:54:59.218Z,43.10
2017-11-17T09:57:27.490Z,55.53
2017-11-17T09:59:55.730Z,30.33
2017-11-17T10:02:23.978Z,32.90
2017-11-17T10:04:52.256Z,34.57
2017-11-17T10:07:20.516Z,40.63
2017-11-17T10:09:48.773Z,38.83
2017-11-17T10:12:17.072Z,34.43
2017-11-17T10:14:45.359Z,30.80
2017-11-17T10:17:13.648Z,23.93
2017-11-17T10:19:41.964Z,26.27
2017-11-17T10:22:12.204Z,41.93
2017-11-17T10:24:40.428Z,29.93
2017-11-17T10:27:08.672Z,40.27
2017-11-17T10:29:37.893Z,18.33
2017-11-17T10:32:07.137Z,25.07
2017-11-17T10:34:36.225Z,22.47
2017-11-17T10:37:05.302Z,31.53
2017-11-17T10:39:33.572Z,19.97
2017-11-17T10:42:02.096Z,26.83
2017-11-17T10:44:31.272Z,17.63
2017-11-17T10:47:01.880Z,21.33
2017-11-17T10:49:30.199Z,23.17
2017-11-17T10:52:00.059Z,31.27
2017-11-17T10:54:28.376Z,36.20
2017-11-17T10:56:57.583Z,43.93
2017-11-17T10:59:25.840Z,22.93
2017-11-17T11:01:54.102Z,28.37
2017-11-17T11:04:22.438Z,31.53
2017-11-17T11:06:50.819Z,31.10
2017-11-17T11:09:19.888Z,34.73
2017-11-17T11:11:53.316Z,43.13
2017-11-17T11:14:22.386Z,33.17
2017-11-17T11:16:50.652Z,23.17
2017-11-17T11:19:18.888Z,26.27
2017-11-17T11:21:47.178Z,41.70
2017-11-17T11:24:15.815Z,22.17
2017-11-17T11:26:46.137Z,24.10
2017-11-17T11:29:14.812Z,24.67
2017-11-17T11:31:43.034Z,17.13
2017-11-17T11:34:11.419Z,27.07
2017-11-17T11:36:39.726Z,16.97
2017-11-17T11:39:07.972Z,18.50
2017-11-17T11:41:36.220Z,23.67
2017-11-17T11:44:05.267Z,10.73
2017-11-17T11:46:33.552Z,13.73
2017-11-17T11:49:01.799Z,13.70
2017-11-17T11:51:30.086Z,22.23
2017-11-17T11:53:58.349Z,27.27
2017-11-17T11:56:26.581Z,26.43
2017-11-17T11:58:54.865Z,32.33
2017-11-17T12:01:24.644Z,42.43
2017-11-17T12:03:52.889Z,24.67
2017-11-17T12:06:21.131Z,27.07
2017-11-17T12:08:50.185Z,20.73
2017-11-17T12:11:18.440Z,19.80
2017-11-17T12:13:46.689Z,21.70
2017-11-17T12:16:15.699Z,19.93
2017-11-17T12:18:43.996Z,16.60
2017-11-17T12:21:12.263Z,19.93
2017-11-17T12:23:40.543Z,23.33
2017-11-17T12:26:08.776Z,32.43
2017-11-17T12:28:37.066Z,27.03
2017-11-17T12:31:05.902Z,19.80
2017-11-17T12:33:34.186Z,18.70
2017-11-17T12:36:02.854Z,24.07
2017-11-17T12:38:32.465Z,32.43
2017-11-17T12:41:00.763Z,22.87
2017-11-17T12:43:29.063Z,26.23
2017-11-17T12:45:58.302Z,19.27
2017-11-17T12:48:27.378Z,15.57
2017-11-17T12:50:55.613Z,34.67
2017-11-17T12:53:23.919Z,20.43
2017-11-17T12:55:52.164Z,24.70
2017-11-17T12:58:20.480Z,33.10
2017-11-17T13:00:48.734Z,36.93
2017-11-17T13:03:16.983Z,26.07
2017-11-17T13:05:46.237Z,24.07
2017-11-17T13:08:14.452Z,20.00
2017-11-17T13:10:43.577Z,15.80
2017-11-17T13:13:11.845Z,18.10
2017-11-17T13:15:41.019Z,20.00
2017-11-17T13:18:10.213Z,23.80
2017-11-17T13:20:39.261Z,20.53
2017-11-17T13:23:08.067Z,19.93
2017-11-17T13:25:36.291Z,13.20
2017-11-17T13:28:05.800Z,15.27
2017-11-17T13:30:36.244Z,36.90
2017-11-17T13:33:04.571Z,23.30
2017-11-17T13:35:34.532Z,12.87
2017-11-17T13:38:03.174Z,34.70
2017-11-17T13:40:31.430Z,78.90
2017-11-17T13:42:59.685Z,25.27
2017-11-17T13:45:28.609Z,20.50
2017-11-17T13:47:58.637Z,22.73
2017-11-17T13:50:28.753Z,19.80
2017-11-17T13:52:57.135Z,26.53
2017-11-17T13:55:25.396Z,31.80
2017-11-17T13:57:55.182Z,35.23
2017-11-17T14:00:27.149Z,16.13
2017-11-17T14:02:55.514Z,26.47
2017-11-17T14:05:23.776Z,8.20
2017-11-17T14:07:52.837Z,16.60
2017-11-17T14:10:21.097Z,14.73
2017-11-17T14:12:49.382Z,24.77
2017-11-17T14:15:18.546Z,13.00
2017-11-17T14:17:47.227Z,10.87
2017-11-17T14:20:15.486Z,26.80
2017-11-17T14:22:43.790Z,23.13
2017-11-17T14:25:12.937Z,24.13
2017-11-17T14:27:41.153Z,15.23
2017-11-17T14:30:10.385Z,22.50
2017-11-17T14:32:38.674Z,22.90
2017-11-17T14:35:07.087Z,23.73
2017-11-17T14:37:36.146Z,13.87
2017-11-17T14:40:04.422Z,19.20
2017-11-17T14:42:33.520Z,17.93
2017-11-17T14:45:01.809Z,23.70
2017-11-17T14:47:30.098Z,21.17
2017-11-17T14:49:59.176Z,9.93
2017-11-17T14:52:28.552Z,17.87
2017-11-17T14:54:56.777Z,24.97
2017-11-17T14:57:25.867Z,25.20
2017-11-17T15:00:05.084Z,21.00
2017-11-17T15:02:34.254Z,15.00
2017-11-17T15:05:02.569Z,29.87
2017-11-17T15:07:30.839Z,36.63
2017-11-17T15:09:59.104Z,39.03
2017-11-17T15:12:28.182Z,24.37
2017-11-17T15:14:58.050Z,20.17
2017-11-17T15:17:26.677Z,22.80
2017-11-17T15:19:55.070Z,15.60
2017-11-17T15:22:23.756Z,37.43
2017-11-17T15:24:52.065Z,38.17
2017-11-17T15:27:21.323Z,42.20
2017-11-17T15:29:50.779Z,46.77
2017-11-17T15:32:19.164Z,33.60
2017-11-17T15:34:49.175Z,51.30
2017-11-17T15:37:17.497Z,42.50
2017-11-17T15:39:46.771Z,43.70
2017-11-17T15:42:15.311Z,24.67
2017-11-17T15:44:43.580Z,30.23
2017-11-17T15:47:11.879Z,38.80
2017-11-17T15:49:40.197Z,45.53
2017-11-17T15:52:08.537Z,26.57
2017-11-17T15:54:36.797Z,41.70
2017-11-17T15:57:06.102Z,38.27
2017-11-17T15:59:34.443Z,33.37
2017-11-17T16:02:04.081Z,43.77
2017-11-17T16:04:32.378Z,26.97
2017-11-17T16:07:01.488Z,24.00
2017-11-17T16:09:29.827Z,36.93
2017-11-17T16:11:59.031Z,39.40
2017-11-17T16:14:27.341Z,32.43
2017-11-17T16:16:55.654Z,19.33
2017-11-17T16:19:24.794Z,18.53
2017-11-17T16:21:53.096Z,34.43
2017-11-17T16:24:21.331Z,20.77
2017-11-17T16:26:49.689Z,20.43
2017-11-17T16:29:18.463Z,16.40
2017-11-17T16:31:46.772Z,17.30
2017-11-17T16:34:15.053Z,30.00
2017-11-17T16:36:43.329Z,35.27
2017-11-17T16:39:11.642Z,28.77
2017-11-17T16:41:40.287Z,37.53
2017-11-17T16:44:08.717Z,31.33
2017-11-17T16:46:37.077Z,35.33
2017-11-17T16:49:05.407Z,32.87
2017-11-17T16:51:33.733Z,37.83
2017-11-17T16:54:02.033Z,37.23
2017-11-17T16:56:32.084Z,41.93
2017-11-17T16:59:01.210Z,45.47
2017-11-17T17:01:29.548Z,34.67
2017-11-17T17:03:57.865Z,35.53
2017-11-17T17:06:27.014Z,28.67
2017-11-17T17:08:56.082Z,26.07
2017-11-17T17:11:24.439Z,31.43
2017-11-17T17:13:52.739Z,33.30
2017-11-17T17:16:21.270Z,50.97
2017-11-17T17:18:49.568Z,34.60
2017-11-17T17:21:17.905Z,36.00
2017-11-17T17:23:46.211Z,42.27
2017-11-17T17:26:16.280Z,44.93
2017-11-17T17:28:44.552Z,30.13
2017-11-17T17:31:12.821Z,26.50
2017-11-17T17:33:41.133Z,38.53
2017-11-17T17:36:10.188Z,29.33
2017-11-17T17:38:38.869Z,39.77
2017-11-17T17:41:08.789Z,30.53
2017-11-17T17:43:37.041Z,30.13
2017-11-17T17:46:06.069Z,28.10
2017-11-17T17:48:34.356Z,55.60
2017-11-17T17:51:02.628Z,48.17
2017-11-17T17:53:30.901Z,25.50
2017-11-17T17:55:59.165Z,34.20
2017-11-17T17:58:27.467Z,22.87
2017-11-17T18:00:55.780Z,32.33
2017-11-17T18:03:24.855Z,19.73
2017-11-17T18:05:53.321Z,50.40
2017-11-17T18:08:21.585Z,43.33
2017-11-17T18:10:49.874Z,34.23
2017-11-17T18:13:18.157Z,41.53
2017-11-17T18:15:46.526Z,36.10
2017-11-17T18:18:14.862Z,33.00
2017-11-17T18:20:43.296Z,36.10
2017-11-17T18:23:11.912Z,44.20
2017-11-17T18:25:40.352Z,31.50
2017-11-17T18:28:09.407Z,25.03
2017-11-17T18:30:37.725Z,38.17
2017-11-17T18:33:06.151Z,30.67
2017-11-17T18:35:35.817Z,27.67
2017-11-17T18:38:04.827Z,29.23
2017-11-17T18:40:34.103Z,28.30
2017-11-17T18:43:02.720Z,32.67
2017-11-17T18:45:31.634Z,34.83
2017-11-17T18:48:00.139Z,37.00
2017-11-17T18:50:28.548Z,36.60
2017-11-17T18:52:57.085Z,35.77
2017-11-17T18:55:26.200Z,19.97
2017-11-17T18:57:54.446Z,28.23
2017-11-17T19:00:23.108Z,22.43
2017-11-17T19:02:51.664Z,46.43
2017-11-17T19:05:20.334Z,26.07
2017-11-17T19:07:48.671Z,28.00
2017-11-17T19:10:17.338Z,28.73
2017-11-17T19:12:45.733Z,45.10
2017-11-17T19:15:14.792Z,29.87
2017-11-17T19:17:43.042Z,43.93
2017-11-17T19:20:11.360Z,53.20
2017-11-17T19:22:40.265Z,44.87
2017-11-17T19:25:10.122Z,32.17
2017-11-17T19:27:38.440Z,30.30
2017-11-17T19:30:07.771Z,28.00
2017-11-17T19:32:36.286Z,35.80
2017-11-17T19:35:06.799Z,39.40
2017-11-17T19:37:36.106Z,27.50
2017-11-17T19:40:04.481Z,28.37
2017-11-17T19:42:33.701Z,33.87
2017-11-17T19:45:03.021Z,47.43
2017-11-17T19:47:32.255Z,36.33
2017-11-17T19:50:02.418Z,46.00
2017-11-17T19:52:31.529Z,56.10
2017-11-17T19:55:03.133Z,21.33
2017-11-17T19:57:33.021Z,21.90
2017-11-17T20:00:04.501Z,37.63
2017-11-17T20:02:33.373Z,31.30
2017-11-17T20:05:03.426Z,32.40
2017-11-17T20:07:32.944Z,37.43
2017-11-17T20:10:01.807Z,45.47
2017-11-17T20:12:32.433Z,32.30
2017-11-17T20:15:04.222Z,36.77
2017-11-17T20:17:35.040Z,30.77
2017-11-17T20:20:03.868Z,33.33
2017-11-17T20:22:35.639Z,21.13
2017-11-17T20:25:04.822Z,24.60
2017-11-17T20:27:33.897Z,25.43
2017-11-17T20:30:02.598Z,28.20
2017-11-17T20:32:31.683Z,33.07
2017-11-17T20:35:02.386Z,38.87
2017-11-17T20:37:33.059Z,41.37
2017-11-17T20:40:02.123Z,30.73
2017-11-17T20:42:30.493Z,52.07
2017-11-17T20:44:58.798Z,25.37
2017-11-17T20:47:28.787Z,37.67
2017-11-17T20:49:58.726Z,22.00
2017-11-17T20:52:31.227Z,40.47
2017-11-17T20:54:59.561Z,23.40
2017-11-17T20:57:27.953Z,41.07
2017-11-17T20:59:56.319Z,26.40
2017-11-17T21:02:24.584Z,32.63
2017-11-17T21:04:52.880Z,39.93
2017-11-17T21:07:21.146Z,43.83
2017-11-17T21:09:49.780Z,28.80
2017-11-17T21:12:18.079Z,28.53
2017-11-17T21:14:47.287Z,36.83
2017-11-17T21:17:15.637Z,62.53
2017-11-17T21:19:44.939Z,48.37
2017-11-17T21:22:13.333Z,49.50
2017-11-17T21:24:42.744Z,42.37
2017-11-17T21:27:11.212Z,62.13
2017-11-17T21:29:40.327Z,47.20
2017-11-17T21:32:10.019Z,41.87
2017-11-17T21:34:39.955Z,44.57
2017-11-17T21:37:08.394Z,46.80
2017-11-17T21:39:36.733Z,33.97
2017-11-17T21:42:05.095Z,33.40
2017-11-17T21:44:34.147Z,24.33
2017-11-17T21:47:02.417Z,35.80
2017-11-17T21:49:31.470Z,22.30
2017-11-17T21:52:00.783Z,28.17
2017-11-17T21:54:29.125Z,33.87
2017-11-17T21:56:57.457Z,31.57
2017-11-17T21:59:25.941Z,21.27
2017-11-17T22:01:54.239Z,35.80
2017-11-17T22:04:22.786Z,25.63
2017-11-17T22:06:51.068Z,24.53
2017-11-17T22:09:19.370Z,26.27
2017-11-17T22:11:47.678Z,17.03
2017-11-17T22:14:16.286Z,27.70
2017-11-17T22:16:45.328Z,26.50
2017-11-17T22:19:13.605Z,37.77
2017-11-17T22:21:41.972Z,29.97
2017-11-17T22:24:10.308Z,32.93
2017-11-17T22:26:39.322Z,25.90
2017-11-17T22:29:07.706Z,35.00
2017-11-17T22:31:36.764Z,25.00
2017-11-17T22:34:05.078Z,31.90
2017-11-17T22:36:33.330Z,39.03
2017-11-17T22:39:02.504Z,49.77
2017-11-17T22:41:30.833Z,30.53
2017-11-17T22:44:00.155Z,23.90
2017-11-17T22:46:28.475Z,39.83
2017-11-17T22:48:56.747Z,33.20
2017-11-17T22:51:28.960Z,46.87
2017-11-17T22:53:57.253Z,27.60
2017-11-17T22:56:26.602Z,25.00
2017-11-17T22:58:54.967Z,44.00
2017-11-17T23:01:23.259Z,17.27
2017-11-17T23:03:52.366Z,29.73
2017-11-17T23:06:20.736Z,44.17
2017-11-17T23:08:48.992Z,40.83
2017-11-17T23:11:18.091Z,44.30
2017-11-17T23:13:46.713Z,47.03
2017-11-17T23:16:14.984Z,33.40
2017-11-17T23:18:44.447Z,51.10
2017-11-17T23:21:12.731Z,37.47
2017-11-17T23:23:42.216Z,39.23
2017-11-17T23:26:10.512Z,46.23
2017-11-17T23:28:38.744Z,41.23
2017-11-17T23:31:07.735Z,29.43
2017-11-17T23:33:36.769Z,73.27
2017-11-17T23:36:05.024Z,28.77
2017-11-17T23:38:34.028Z,40.10
2017-11-17T23:41:02.281Z,28.50
2017-11-17T23:43:31.299Z,35.50
2017-11-17T23:45:59.550Z,43.70
2017-11-17T23:48:27.825Z,32.10
2017-11-17T23:50:56.137Z,35.10
2017-11-17T23:53:24.421Z,29.50
2017-11-17T23:55:52.699Z,26.10
2017-11-17T23:58:21.370Z,31.13
